createdAt,value
2023-02-08T07:08:03.848Z,102365.48
2023-02-08T07:10:32.436Z,102364.60
2023-02-08T07:13:02.408Z,102362.73
2023-02-08T07:15:31.158Z,102367.30
2023-02-08T07:18:00.027Z,102368.02
2023-02-08T07:20:29.133Z,102363.95
2023-02-08T07:22:57.993Z,102364.27
2023-02-08T07:25:26.273Z,102363.45
2023-02-08T07:27:55.077Z,102364.10
2023-02-08T07:30:23.646Z,102361.58
2023-02-08T07:32:52.548Z,102362.20
2023-02-08T07:35:20.761Z,102365.89
2023-02-08T07:37:48.901Z,102358.64
2023-02-08T07:40:17.664Z,102353.88
2023-02-08T07:42:46.264Z,102355.96
2023-02-08T07:45:23.395Z,102357.42
2023-02-08T07:47:51.921Z,102369.26
2023-02-08T07:50:20.272Z,102368.58
2023-02-08T07:52:48.544Z,102374.27
2023-02-08T07:55:17.325Z,102380.30
2023-02-08T07:57:47.889Z,102386.59
2023-02-08T08:00:17.662Z,102391.29
2023-02-08T08:02:46.038Z,102396.80
2023-02-08T08:05:14.320Z,102398.14
2023-02-08T08:07:44.835Z,102398.75
2023-02-08T08:10:13.440Z,102400.80
2023-02-08T08:12:41.605Z,102405.84
2023-02-08T08:15:10.318Z,102403.26
2023-02-08T08:17:42.175Z,102398.77
2023-02-08T08:20:11.183Z,102407.70
2023-02-08T08:22:39.624Z,102411.79
2023-02-08T08:25:07.952Z,102416.90
2023-02-08T08:27:36.420Z,102420.73
2023-02-08T08:30:12.939Z,102410.79
2023-02-08T08:32:42.096Z,102411.27
2023-02-08T08:35:10.693Z,102408.17
2023-02-08T08:37:39.064Z,102412.89
2023-02-08T08:40:08.426Z,102413.77
2023-02-08T08:42:39.929Z,102414.30
2023-02-08T08:45:08.859Z,102420.88
2023-02-08T08:47:37.139Z,102420.52
2023-02-08T08:50:06.709Z,102430.39
2023-02-08T08:52:34.988Z,102428.86
2023-02-08T08:55:04.327Z,102429.05
2023-02-08T08:57:32.501Z,102428.54
2023-02-08T09:00:02.968Z,102424.56
2023-02-08T09:02:31.288Z,102424.91
2023-02-08T09:05:05.554Z,102424.48
2023-02-08T09:07:35.048Z,102422.26
2023-02-08T09:10:04.108Z,102425.98
2023-02-08T09:12:33.260Z,102423.02
2023-02-08T09:15:01.588Z,102422.63
2023-02-08T09:17:30.080Z,102425.83
2023-02-08T09:19:58.559Z,102429.58
2023-02-08T09:22:26.943Z,102426.27
2023-02-08T09:24:55.402Z,102431.77
2023-02-08T09:27:23.567Z,102423.60
2023-02-08T09:29:52.458Z,102426.98
2023-02-08T09:32:21.506Z,102423.98
2023-02-08T09:34:49.901Z,102424.15
2023-02-08T09:37:18.332Z,102421.12
2023-02-08T09:39:47.252Z,102421.30
2023-02-08T09:42:24.663Z,102418.69
2023-02-08T09:45:02.516Z,102419.79
2023-02-08T09:47:30.842Z,102411.55
2023-02-08T09:50:06.763Z,102408.45
2023-02-08T09:52:38.452Z,102400.92
2023-02-08T09:55:20.972Z,102402.80
2023-02-08T09:57:49.110Z,102407.70
2023-02-08T10:00:21.002Z,102409.41
2023-02-08T10:02:50.127Z,102406.68
2023-02-08T10:05:21.417Z,102399.18
2023-02-08T10:07:49.757Z,102404.98
2023-02-08T10:10:41.451Z,102400.31
2023-02-08T10:13:41.149Z,102398.37
2023-02-08T10:16:13.651Z,102404.77
2023-02-08T10:19:05.027Z,102410.48
2023-02-08T10:21:53.795Z,102416.98
2023-02-08T10:24:26.268Z,102416.05
2023-02-08T10:27:17.873Z,102413.28
2023-02-08T10:30:31.315Z,102411.59
2023-02-08T10:33:01.569Z,102412.19
2023-02-08T10:35:37.348Z,102413.44
2023-02-08T10:38:23.392Z,102408.36
2023-02-08T10:40:55.930Z,102404.25
2023-02-08T10:43:33.217Z,102400.55
2023-02-08T10:46:20.465Z,102402.66
2023-02-08T10:48:59.133Z,102401.44
2023-02-08T10:51:27.195Z,102394.59
2023-02-08T10:53:55.487Z,102396.40
2023-02-08T10:56:45.347Z,102399.17
2023-02-08T10:59:17.045Z,102400.58
2023-02-08T11:01:45.507Z,102394.44
2023-02-08T11:04:14.054Z,102391.18
2023-02-08T11:06:44.182Z,102386.17
2023-02-08T11:09:26.153Z,102389.36
2023-02-08T11:11:55.274Z,102386.10
2023-02-08T11:14:46.196Z,102389.44
2023-02-08T11:17:35.773Z,102388.94
2023-02-08T11:20:04.331Z,102389.45
2023-02-08T11:22:34.596Z,102385.42
2023-02-08T11:25:06.174Z,102388.92
2023-02-08T11:27:36.627Z,102391.97
2023-02-08T11:30:14.079Z,102393.06
2023-02-08T11:32:43.342Z,102395.66
2023-02-08T11:35:20.692Z,102386.89
2023-02-08T11:37:50.476Z,102386.35
2023-02-08T11:40:24.998Z,102389.31
2023-02-08T11:42:54.400Z,102388.11
2023-02-08T11:45:30.459Z,102384.77
2023-02-08T11:47:58.944Z,102384.25
2023-02-08T11:50:39.918Z,102386.39
2023-02-08T11:53:23.448Z,102384.51
2023-02-08T11:56:22.644Z,102389.77
2023-02-08T11:59:09.522Z,102387.10
2023-02-08T12:01:39.722Z,102385.67
2023-02-08T12:04:11.163Z,102387.23
2023-02-08T12:07:12.355Z,102384.21
2023-02-08T12:09:58.534Z,102386.27
2023-02-08T12:12:49.327Z,102390.66
2023-02-08T12:15:23.532Z,102395.70
2023-02-08T12:18:26.110Z,102400.73
2023-02-08T12:21:28.680Z,102406.84
2023-02-08T12:24:06.780Z,102405.95
2023-02-08T12:26:55.115Z,102405.06
2023-02-08T12:29:23.576Z,102401.02
2023-02-08T12:32:06.824Z,102396.61
2023-02-08T12:34:56.489Z,102400.09
2023-02-08T12:37:44.010Z,102401.48
2023-02-08T12:40:44.054Z,102402.53
2023-02-08T12:43:54.567Z,102402.16
2023-02-08T12:46:26.055Z,102403.73
2023-02-08T12:49:03.605Z,102402.17
2023-02-08T12:51:37.726Z,102405.48
2023-02-08T12:54:26.171Z,102407.60
2023-02-08T12:57:02.090Z,102408.80
2023-02-08T12:59:59.512Z,102406.14
2023-02-08T13:02:57.477Z,102405.41
2023-02-08T13:05:30.294Z,102408.40
2023-02-08T13:08:15.884Z,102411.02
2023-02-08T13:10:46.869Z,102407.50
2023-02-08T13:13:18.196Z,102405.92
2023-02-08T13:15:54.147Z,102405.92
2023-02-08T13:18:25.098Z,102404.01
2023-02-08T13:21:08.612Z,102407.70
2023-02-08T13:23:50.582Z,102407.65
2023-02-08T13:26:23.157Z,102405.02
2023-02-08T13:28:56.499Z,102403.23
2023-02-08T13:31:28.597Z,102398.66
2023-02-08T13:34:08.439Z,102398.86
2023-02-08T13:36:40.195Z,102393.23
2023-02-08T13:39:22.534Z,102395.84
2023-02-08T13:41:52.783Z,102390.58
2023-02-08T13:44:26.658Z,102394.04
2023-02-08T13:46:54.916Z,102400.14
2023-02-08T13:49:49.397Z,102401.48
2023-02-08T13:52:46.395Z,102407.55
2023-02-08T13:55:32.184Z,102402.23
2023-02-08T13:58:01.182Z,102404.27
2023-02-08T14:00:37.350Z,102406.19
2023-02-08T14:03:14.995Z,102403.02
2023-02-08T14:06:15.579Z,102407.54
2023-02-08T14:09:23.733Z,102407.65
2023-02-08T14:11:57.280Z,102412.48
2023-02-08T14:14:26.821Z,102411.76
2023-02-08T14:17:04.701Z,102410.65
2023-02-08T14:19:41.124Z,102409.52
2023-02-08T14:22:12.719Z,102414.19
2023-02-08T14:24:59.299Z,102416.42
2023-02-08T14:27:39.466Z,102413.23
2023-02-08T14:30:16.752Z,102415.80
2023-02-08T14:33:07.631Z,102416.96
2023-02-08T14:35:37.869Z,102412.20
2023-02-08T14:38:24.558Z,102413.42
2023-02-08T14:40:59.593Z,102418.13
2023-02-08T14:43:41.277Z,102416.56
2023-02-08T14:46:38.077Z,102419.90
2023-02-08T14:49:17.161Z,102417.28
2023-02-08T14:51:51.547Z,102423.19
2023-02-08T14:54:34.134Z,102426.80
2023-02-08T14:57:12.035Z,102431.48
2023-02-08T14:59:40.858Z,102432.11
2023-02-08T15:02:20.196Z,102433.80
2023-02-08T15:04:49.506Z,102433.58
2023-02-08T15:07:35.785Z,102430.38
2023-02-08T15:10:05.575Z,102430.13
2023-02-08T15:12:35.857Z,102432.86
